createdAt,value
2023-03-27T00:02:09.348Z,7.02
2023-03-27T00:07:12.409Z,7.07
2023-03-27T00:12:14.287Z,7.05
2023-03-27T00:17:15.954Z,6.99
2023-03-27T00:22:17.708Z,7.05
2023-03-27T00:27:19.921Z,7.04
2023-03-27T00:32:21.823Z,7.03
2023-03-27T00:37:23.709Z,7.05
2023-03-27T00:42:27.132Z,7.13
2023-03-27T00:47:32.996Z,7.07
2023-03-27T00:52:37.165Z,7.06
2023-03-27T00:57:39.930Z,7.05
2023-03-27T01:02:43.537Z,7.03
2023-03-27T01:08:00.098Z,6.98
2023-03-27T01:13:37.089Z,6.92
2023-03-27T01:19:22.436Z,6.84
2023-03-27T01:25:10.692Z,6.80
2023-03-27T01:30:36.419Z,6.82
2023-03-27T01:35:51.096Z,6.77
2023-03-27T01:41:28.022Z,6.73
2023-03-27T01:46:35.644Z,6.75
2023-03-27T01:51:45.301Z,6.73
2023-03-27T01:56:53.825Z,6.74
2023-03-27T02:02:07.079Z,6.73
2023-03-27T02:07:14.654Z,6.72
2023-03-27T02:12:28.109Z,6.69
2023-03-27T02:17:33.988Z,6.71
2023-03-27T02:22:38.285Z,6.71
2023-03-27T02:27:47.939Z,6.67
2023-03-27T02:33:08.997Z,6.64
2023-03-27T02:38:23.493Z,6.68
2023-03-27T02:43:37.801Z,6.72
2023-03-27T02:48:50.355Z,6.71
2023-03-27T02:53:57.875Z,6.73
2023-03-27T02:59:08.616Z,6.70
2023-03-27T03:04:20.195Z,6.64
2023-03-27T03:09:41.536Z,6.63
2023-03-27T03:14:44.666Z,6.61
2023-03-27T03:19:47.736Z,6.55
2023-03-27T03:24:50.954Z,6.53
2023-03-27T03:29:56.733Z,6.45
2023-03-27T03:35:01.852Z,6.39
2023-03-27T03:40:14.403Z,6.41
2023-03-27T03:45:20.975Z,6.36
2023-03-27T03:50:22.912Z,6.36
2023-03-27T03:55:25.873Z,6.45
2023-03-27T04:00:28.430Z,6.50
2023-03-27T04:05:32.206Z,6.46
2023-03-27T04:10:35.846Z,6.40
2023-03-27T04:15:40.867Z,6.33
2023-03-27T04:20:54.426Z,6.30
2023-03-27T04:26:03.165Z,6.25
2023-03-27T04:31:26.149Z,6.27
2023-03-27T04:36:47.368Z,6.19
2023-03-27T04:41:58.328Z,6.08
2023-03-27T04:47:08.686Z,6.07
2023-03-27T04:52:14.169Z,6.05
2023-03-27T04:57:19.280Z,5.96
2023-03-27T05:02:23.468Z,5.96
2023-03-27T05:07:40.235Z,5.89
2023-03-27T05:12:44.382Z,5.84
2023-03-27T05:17:54.259Z,5.89
2023-03-27T05:22:58.804Z,5.84
2023-03-27T05:28:01.921Z,5.71
2023-03-27T05:33:13.905Z,5.57
2023-03-27T05:38:15.926Z,5.53
2023-03-27T05:43:36.861Z,5.54
2023-03-27T05:48:39.103Z,5.45
2023-03-27T05:53:42.193Z,5.46
2023-03-27T05:58:53.586Z,5.49
2023-03-27T06:03:56.378Z,5.47
2023-03-27T06:09:12.585Z,5.42
2023-03-27T06:14:17.393Z,5.42
2023-03-27T06:19:38.094Z,5.40
2023-03-27T06:24:39.903Z,5.43
2023-03-27T06:29:41.943Z,5.28
2023-03-27T06:34:44.240Z,5.26
2023-03-27T06:40:10.423Z,5.04
2023-03-27T06:45:14.101Z,5.01
2023-03-27T06:50:52.764Z,5.06
2023-03-27T06:55:56.027Z,5.04
2023-03-27T07:00:59.593Z,5.03
2023-03-27T07:06:30.492Z,5.08
2023-03-27T07:11:39.488Z,5.26
2023-03-27T07:16:43.845Z,5.12
2023-03-27T07:21:45.699Z,5.22
2023-03-27T07:26:48.187Z,5.30
2023-03-27T07:31:58.895Z,5.32
2023-03-27T07:37:07.057Z,5.20
2023-03-27T07:42:10.623Z,5.19
2023-03-27T07:47:36.581Z,5.45
2023-03-27T07:52:40.562Z,5.48
2023-03-27T07:58:00.660Z,5.50
2023-03-27T08:03:10.720Z,5.59
2023-03-27T08:08:17.762Z,5.58
2023-03-27T08:13:30.651Z,5.47
2023-03-27T08:18:40.722Z,5.51
2023-03-27T08:23:43.510Z,5.57
2023-03-27T08:29:04.266Z,5.71
2023-03-27T08:34:09.186Z,5.67
2023-03-27T08:39:23.938Z,5.72
2023-03-27T08:44:33.951Z,5.63
2023-03-27T08:49:47.803Z,5.59
2023-03-27T08:55:22.296Z,5.60
2023-03-27T09:00:55.481Z,5.79
2023-03-27T09:06:08.373Z,5.94
2023-03-27T09:11:21.825Z,5.84
2023-03-27T09:16:36.124Z,5.66
2023-03-27T09:21:57.995Z,5.63
2023-03-27T09:27:20.445Z,5.47
2023-03-27T09:32:33.239Z,5.47
2023-03-27T09:37:36.948Z,5.45
2023-03-27T09:42:43.382Z,5.45
2023-03-27T09:47:58.516Z,5.39
2023-03-27T09:53:19.347Z,5.24
2023-03-27T09:58:27.841Z,5.16
2023-03-27T10:03:37.142Z,5.31
2023-03-27T10:08:47.096Z,5.52
2023-03-27T10:13:54.501Z,5.69
2023-03-27T10:19:00.461Z,5.77
2023-03-27T10:24:19.295Z,6.00
2023-03-27T10:29:47.730Z,6.35
2023-03-27T10:35:00.247Z,6.23
2023-03-27T10:40:18.276Z,6.30
2023-03-27T10:45:23.201Z,6.75
2023-03-27T10:50:53.368Z,6.53
2023-03-27T10:56:20.966Z,6.64
2023-03-27T11:01:31.216Z,6.27
2023-03-27T11:06:41.738Z,6.03
2023-03-27T11:11:55.384Z,5.93
2023-03-27T11:17:06.329Z,6.38
2023-03-27T11:22:37.434Z,6.63
2023-03-27T11:27:51.539Z,6.71
2023-03-27T11:33:38.198Z,6.52
2023-03-27T11:38:51.435Z,6.69
2023-03-27T11:43:53.664Z,7.09
2023-03-27T11:49:41.635Z,7.00
2023-03-27T11:55:08.556Z,6.62
2023-03-27T12:00:32.599Z,6.58
2023-03-27T12:05:50.226Z,6.71
2023-03-27T12:10:54.719Z,6.71
2023-03-27T12:16:11.423Z,6.53
2023-03-27T12:21:35.009Z,6.53
2023-03-27T12:27:11.906Z,7.02
2023-03-27T12:32:46.067Z,7.18
2023-03-27T12:38:12.247Z,6.98
2023-03-27T12:43:40.130Z,6.80
2023-03-27T12:49:01.596Z,6.74
2023-03-27T12:54:14.611Z,7.06
2023-03-27T12:59:23.489Z,7.29
2023-03-27T13:05:01.596Z,7.85
2023-03-27T13:10:06.675Z,6.84
2023-03-27T13:15:44.902Z,6.95
2023-03-27T13:20:59.845Z,7.39
2023-03-27T13:27:00.892Z,7.74
2023-03-27T13:32:48.620Z,6.97
2023-03-27T13:38:00.725Z,7.30
2023-03-27T13:43:21.641Z,7.57
2023-03-27T13:48:59.410Z,8.01
2023-03-27T13:54:32.321Z,7.13
2023-03-27T13:59:51.564Z,6.35
2023-03-27T14:05:27.690Z,5.82
2023-03-27T14:10:36.075Z,5.66
2023-03-27T14:15:54.512Z,6.10
2023-03-27T14:21:12.111Z,6.42
2023-03-27T14:26:30.563Z,6.76
2023-03-27T14:31:36.260Z,7.07
2023-03-27T14:36:48.569Z,7.32
2023-03-27T14:42:01.496Z,7.21
2023-03-27T14:47:11.965Z,7.43
2023-03-27T14:52:24.977Z,7.63
2023-03-27T14:58:10.438Z,7.52
2023-03-27T15:03:18.783Z,7.22
2023-03-27T15:08:22.329Z,6.75
2023-03-27T15:13:47.995Z,5.42
2023-03-27T15:19:09.694Z,4.82
2023-03-27T15:24:23.224Z,4.61
2023-03-27T15:29:42.794Z,4.24
2023-03-27T15:34:51.219Z,4.03
2023-03-27T15:40:09.366Z,3.78
2023-03-27T15:45:14.545Z,3.95
2023-03-27T15:50:22.564Z,4.26
2023-03-27T15:55:35.360Z,4.84
2023-03-27T16:00:44.690Z,4.99
2023-03-27T16:05:47.301Z,4.91
2023-03-27T16:10:49.404Z,4.75
2023-03-27T16:15:58.253Z,4.79
2023-03-27T16:21:13.438Z,4.78
2023-03-27T16:26:18.504Z,4.78
2023-03-27T16:31:20.608Z,4.89
2023-03-27T16:36:30.457Z,4.47
2023-03-27T16:41:32.305Z,4.05
2023-03-27T16:46:34.072Z,3.80
2023-03-27T16:51:35.812Z,3.92
2023-03-27T16:56:37.987Z,4.03
2023-03-27T17:01:40.441Z,4.23
2023-03-27T17:06:42.467Z,4.40
2023-03-27T17:11:44.405Z,4.55
2023-03-27T17:16:46.235Z,4.47
2023-03-27T17:21:47.932Z,4.28
2023-03-27T17:26:49.575Z,4.37
2023-03-27T17:31:52.538Z,4.25
2023-03-27T17:36:55.693Z,4.24
2023-03-27T17:41:57.419Z,4.23
2023-03-27T17:47:00.236Z,4.04
2023-03-27T17:52:07.628Z,3.80
2023-03-27T17:57:09.701Z,3.62
2023-03-27T18:02:16.901Z,3.69
2023-03-27T18:07:19.865Z,3.72
2023-03-27T18:12:21.615Z,3.65
2023-03-27T18:17:23.309Z,3.55
2023-03-27T18:22:25.131Z,3.42
2023-03-27T18:27:26.952Z,3.45
2023-03-27T18:32:28.716Z,3.49
2023-03-27T18:37:30.400Z,3.37
2023-03-27T18:42:32.108Z,3.19
2023-03-27T18:47:35.473Z,3.21
2023-03-27T18:52:37.885Z,3.21
2023-03-27T18:57:39.816Z,3.15
2023-03-27T19:02:41.762Z,3.10
2023-03-27T19:07:44.275Z,3.17
2023-03-27T19:12:46.760Z,3.16
2023-03-27T19:18:08.535Z,3.00
2023-03-27T19:23:30.821Z,2.98
2023-03-27T19:28:32.500Z,2.98
2023-03-27T19:33:35.281Z,2.93
2023-03-27T19:38:39.727Z,2.95
2023-03-27T19:43:41.416Z,2.95
2023-03-27T19:48:47.763Z,3.02
2023-03-27T19:54:01.213Z,3.07
2023-03-27T19:59:03.883Z,2.98
2023-03-27T20:04:06.024Z,2.93
2023-03-27T20:09:07.715Z,2.90
2023-03-27T20:14:10.871Z,2.88
2023-03-27T20:19:15.799Z,2.86
2023-03-27T20:24:18.606Z,2.84
2023-03-27T20:29:29.433Z,2.90
2023-03-27T20:34:32.165Z,2.91
2023-03-27T20:39:34.177Z,2.91
2023-03-27T20:44:36.464Z,2.81
2023-03-27T20:49:41.671Z,2.80
2023-03-27T20:54:44.479Z,2.76
2023-03-27T20:59:48.157Z,2.76
2023-03-27T21:04:49.848Z,2.67
2023-03-27T21:09:53.092Z,2.62
2023-03-27T21:14:54.874Z,2.61
2023-03-27T21:19:56.833Z,2.59
2023-03-27T21:24:58.520Z,2.58
2023-03-27T21:30:00.415Z,2.60
2023-03-27T21:35:02.112Z,2.54
2023-03-27T21:40:04.953Z,2.55
2023-03-27T21:45:07.715Z,2.56
2023-03-27T21:50:10.076Z,2.55
2023-03-27T21:55:11.816Z,2.52
2023-03-27T22:00:14.543Z,2.47
2023-03-27T22:05:16.279Z,2.45
2023-03-27T22:10:18.717Z,2.37
2023-03-27T22:15:20.651Z,2.33
2023-03-27T22:20:22.597Z,2.33
2023-03-27T22:25:24.473Z,2.22
2023-03-27T22:30:27.244Z,2.17
2023-03-27T22:35:30.276Z,2.21
2023-03-27T22:40:31.900Z,2.18
2023-03-27T22:45:36.049Z,2.14
2023-03-27T22:50:37.880Z,2.15
2023-03-27T22:55:39.710Z,2.16
2023-03-27T23:00:41.555Z,2.19
2023-03-27T23:05:46.708Z,2.16
2023-03-27T23:11:01.407Z,2.13
2023-03-27T23:16:03.217Z,2.07
2023-03-27T23:21:07.770Z,2.08
2023-03-27T23:26:10.597Z,2.08
2023-03-27T23:31:15.695Z,2.08
2023-03-27T23:36:20.845Z,2.04
2023-03-27T23:41:22.680Z,2.07
2023-03-27T23:46:24.341Z,2.02
2023-03-27T23:51:26.085Z,2.03
2023-03-27T23:56:28.081Z,2.02
